Time;durP1;ratioP1;P1;durP2;ratioP2;P2;SDS_P1;SDS_P2;PMS_P1;PMS_P2;Temp;Humidity;BMP_temperature;BMP_pressure;BME280_temperature;BME280_humidity;BME280_pressure;Samples;Min_cycle;Max_cycle;Signal;HPM_P1;HPM_P2
2023/07/22 00:01:59;;;;;;;5.00;3.00;;;;;;;;;;7368446;19;20039;-70
2023/07/22 00:04:25;;;;;;;4.95;3.13;;;;;;;;;;7387650;19;20006;-69
2023/07/22 00:06:51;;;;;;;5.03;3.20;;;;;;;;;;7365322;19;20021;-69
2023/07/22 00:09:17;;;;;;;4.63;3.20;;;;;;;;;;7366776;19;20006;-68
2023/07/22 00:11:42;;;;;;;6.05;3.25;;;;;;;;;;7367061;19;20813;-70
2023/07/22 00:14:09;;;;;;;9.18;3.53;;;;;;;;;;7369819;19;20015;-70
2023/07/22 00:16:34;;;;;;;5.05;3.08;;;;;;;;;;7395340;19;20085;-69
2023/07/22 00:19:00;;;;;;;4.65;2.95;;;;;;;;;;7377892;19;20364;-69
2023/07/22 00:21:25;;;;;;;6.80;3.25;;;;;;;;;;7370677;19;20020;-70
2023/07/22 00:23:51;;;;;;;6.70;3.35;;;;;;;;;;7372010;19;20785;-69
2023/07/22 00:26:16;;;;;;;7.20;3.35;;;;;;;;;;7370838;19;20107;-70
2023/07/22 00:28:43;;;;;;;7.85;3.72;;;;;;;;;;7387811;19;20007;-69
2023/07/22 00:31:08;;;;;;;6.22;3.10;;;;;;;;;;7369687;19;20108;-68
2023/07/22 00:33:34;;;;;;;4.45;2.88;;;;;;;;;;7369760;19;20030;-69
2023/07/22 00:35:59;;;;;;;5.57;3.40;;;;;;;;;;7367144;19;20491;-68
2023/07/22 00:38:24;;;;;;;6.15;3.03;;;;;;;;;;7367618;19;20103;-69
2023/07/22 00:40:50;;;;;;;6.90;3.53;;;;;;;;;;7390172;19;20006;-69
2023/07/22 00:43:16;;;;;;;7.13;3.20;;;;;;;;;;7369046;19;20473;-69
2023/07/22 00:45:41;;;;;;;6.57;3.67;;;;;;;;;;7366422;19;20018;-69
2023/07/22 00:48:08;;;;;;;5.70;3.55;;;;;;;;;;7367927;19;20488;-69
2023/07/22 00:50:33;;;;;;;5.05;3.00;;;;;;;;;;7367744;19;20074;-69
2023/07/22 00:52:59;;;;;;;5.68;3.30;;;;;;;;;;7367874;19;20461;-69
2023/07/22 00:55:25;;;;;;;5.50;3.47;;;;;;;;;;7387098;19;20011;-69
2023/07/22 00:57:51;;;;;;;4.60;3.15;;;;;;;;;;7366298;19;20106;-69
2023/07/22 01:00:16;;;;;;;5.50;3.17;;;;;;;;;;7366421;19;20024;-69
2023/07/22 01:02:43;;;;;;;8.68;3.50;;;;;;;;;;7366866;19;20002;-69
2023/07/22 01:05:12;;;;;;;5.53;3.42;;;;;;;;;;7367972;19;20055;-69
2023/07/22 01:07:38;;;;;;;5.55;3.20;;;;;;;;;;7386706;19;20030;-69
2023/07/22 01:10:05;;;;;;;6.45;2.85;;;;;;;;;;7366825;19;20018;-68
2023/07/22 01:12:31;;;;;;;6.15;3.35;;;;;;;;;;7366178;19;20405;-68
2023/07/22 01:14:56;;;;;;;4.70;2.83;;;;;;;;;;7365715;19;20017;-68
2023/07/22 01:17:22;;;;;;;5.45;3.42;;;;;;;;;;7361122;19;20014;-68
2023/07/22 01:19:48;;;;;;;6.07;3.20;;;;;;;;;;7386716;19;20017;-69
2023/07/22 01:22:14;;;;;;;5.82;3.30;;;;;;;;;;7363434;19;20094;-69
2023/07/22 01:24:39;;;;;;;4.90;3.25;;;;;;;;;;7365051;19;20022;-68
2023/07/22 01:27:09;;;;;;;5.75;3.42;;;;;;;;;;7366548;19;20011;-69
2023/07/22 01:29:35;;;;;;;5.93;3.33;;;;;;;;;;7366071;19;20086;-68
2023/07/22 01:32:00;;;;;;;5.32;3.40;;;;;;;;;;7363203;19;20361;-68
2023/07/22 01:34:26;;;;;;;5.50;3.50;;;;;;;;;;7386498;19;20014;-70
2023/07/22 01:36:51;;;;;;;5.85;3.50;;;;;;;;;;7365015;19;20018;-69
2023/07/22 01:39:18;;;;;;;9.15;3.80;;;;;;;;;;7366139;19;20213;-70
2023/07/22 01:41:44;;;;;;;6.15;3.50;;;;;;;;;;7366839;19;20038;-68
2023/07/22 01:44:09;;;;;;;5.63;3.75;;;;;;;;;;7368141;19;20082;-69
2023/07/22 01:46:36;;;;;;;6.35;3.80;;;;;;;;;;7389336;19;20015;-69
2023/07/22 01:49:03;;;;;;;5.22;3.20;;;;;;;;;;7367173;19;20031;-69
2023/07/22 01:51:29;;;;;;;6.90;3.97;;;;;;;;;;7366282;19;20014;-68
2023/07/22 01:53:56;;;;;;;6.35;3.80;;;;;;;;;;7367824;19;20097;-69
2023/07/22 01:56:22;;;;;;;6.88;4.22;;;;;;;;;;7365832;19;20484;-69
2023/07/22 01:58:47;;;;;;;7.28;3.75;;;;;;;;;;7386490;19;20015;-69
2023/07/22 02:01:16;;;;;;;5.32;3.35;;;;;;;;;;7366565;19;20014;-68
2023/07/22 02:03:42;;;;;;;6.72;3.75;;;;;;;;;;7366372;19;20013;-68
2023/07/22 02:06:07;;;;;;;7.97;3.83;;;;;;;;;;7368303;19;20019;-68
2023/07/22 02:08:33;;;;;;;5.93;3.60;;;;;;;;;;7366243;19;20469;-69
2023/07/22 02:11:08;;;;;;;5.32;3.25;;;;;;;;;;7366235;19;20007;-69
2023/07/22 02:13:35;;;;;;;6.35;3.63;;;;;;;;;;7387473;19;20563;-69
2023/07/22 02:16:01;;;;;;;7.00;3.40;;;;;;;;;;7363619;19;20025;-69
2023/07/22 02:18:27;;;;;;;7.18;4.13;;;;;;;;;;7365089;19;20015;-69
2023/07/22 02:20:52;;;;;;;6.63;3.53;;;;;;;;;;7364058;19;20370;-69
2023/07/22 02:23:18;;;;;;;7.60;3.47;;;;;;;;;;7366109;19;20018;-69
2023/07/22 02:25:44;;;;;;;6.32;3.50;;;;;;;;;;7386350;19;19999;-69
2023/07/22 02:28:09;;;;;;;6.38;3.65;;;;;;;;;;7357140;19;20296;-68
2023/07/22 02:30:35;;;;;;;6.70;3.80;;;;;;;;;;7362968;19;20016;-69
2023/07/22 02:33:01;;;;;;;6.07;3.75;;;;;;;;;;7366519;19;20108;-69
2023/07/22 02:35:27;;;;;;;7.22;3.92;;;;;;;;;;7363249;19;20038;-69
2023/07/22 02:37:52;;;;;;;5.85;3.85;;;;;;;;;;7386020;19;20007;-68
2023/07/22 02:40:18;;;;;;;6.70;3.58;;;;;;;;;;7364203;19;20013;-69
2023/07/22 02:42:43;;;;;;;6.95;3.80;;;;;;;;;;7364843;19;20010;-69
2023/07/22 02:45:09;;;;;;;6.50;4.18;;;;;;;;;;7365358;19;20058;-69
2023/07/22 02:47:34;;;;;;;7.22;4.03;;;;;;;;;;7362845;19;20006;-69
2023/07/22 02:50:00;;;;;;;7.18;3.72;;;;;;;;;;7366343;19;20078;-69
2023/07/22 02:52:25;;;;;;;7.68;3.80;;;;;;;;;;7391979;19;20642;-69
2023/07/22 02:55:19;;;;;;;7.57;3.90;;;;;;;;;;7373459;19;20031;-69
2023/07/22 02:57:48;;;;;;;7.55;3.78;;;;;;;;;;7370090;19;20018;-69
2023/07/22 03:00:23;;;;;;;8.95;4.18;;;;;;;;;;7378141;19;20318;-69
2023/07/22 03:03:00;;;;;;;7.90;4.05;;;;;;;;;;7374835;19;20007;-69
2023/07/22 03:05:25;;;;;;;6.22;3.50;;;;;;;;;;7370978;19;20014;-69
2023/07/22 03:07:53;;;;;;;6.85;3.80;;;;;;;;;;7392411;19;20035;-69
2023/07/22 03:10:18;;;;;;;9.50;4.60;;;;;;;;;;7371382;19;20039;-69
2023/07/22 03:12:43;;;;;;;6.18;3.80;;;;;;;;;;7372511;19;20007;-69
2023/07/22 03:15:09;;;;;;;6.50;3.63;;;;;;;;;;7376948;19;20018;-69
2023/07/22 03:17:38;;;;;;;6.47;3.80;;;;;;;;;;7384848;19;20017;-69
2023/07/22 03:20:14;;;;;;;7.00;3.90;;;;;;;;;;7383900;19;20002;-69
2023/07/22 03:22:43;;;;;;;8.57;3.40;;;;;;;;;;7392409;19;20006;-69
2023/07/22 03:25:10;;;;;;;6.68;3.90;;;;;;;;;;7368766;19;20018;-69
2023/07/22 03:27:36;;;;;;;6.05;3.63;;;;;;;;;;7366164;19;20014;-69
2023/07/22 03:30:03;;;;;;;7.28;3.85;;;;;;;;;;7367280;19;20024;-69
2023/07/22 03:32:29;;;;;;;7.70;4.05;;;;;;;;;;7365944;19;20017;-69
2023/07/22 03:34:54;;;;;;;6.60;3.58;;;;;;;;;;7375212;19;20014;-70
2023/07/22 03:37:20;;;;;;;6.95;4.60;;;;;;;;;;7383193;19;20013;-70
2023/07/22 03:39:45;;;;;;;8.10;4.25;;;;;;;;;;7369951;19;20103;-70
2023/07/22 03:42:11;;;;;;;6.50;4.20;;;;;;;;;;7370876;19;20018;-69
2023/07/22 03:44:36;;;;;;;10.30;4.45;;;;;;;;;;7371274;19;20024;-69
2023/07/22 03:47:01;;;;;;;7.07;4.43;;;;;;;;;;7367494;19;20492;-69
2023/07/22 03:49:27;;;;;;;7.90;4.78;;;;;;;;;;7390075;19;20006;-69
2023/07/22 03:51:52;;;;;;;5.63;3.88;;;;;;;;;;7368126;19;20533;-70
2023/07/22 03:54:18;;;;;;;8.45;4.45;;;;;;;;;;7370684;19;20074;-69
2023/07/22 03:56:43;;;;;;;7.85;4.05;;;;;;;;;;7373265;19;20003;-69
2023/07/22 03:59:08;;;;;;;7.10;4.20;;;;;;;;;;7375037;19;20011;-70
2023/07/22 04:01:34;;;;;;;6.18;4.40;;;;;;;;;;7390904;19;20461;-70
2023/07/22 04:03:59;;;;;;;7.07;4.47;;;;;;;;;;7370232;19;20003;-69
2023/07/22 04:06:24;;;;;;;7.25;4.53;;;;;;;;;;7369556;19;20021;-70
2023/07/22 04:08:49;;;;;;;7.22;4.20;;;;;;;;;;7368388;19;20017;-69
2023/07/22 04:11:15;;;;;;;8.30;4.28;;;;;;;;;;7367537;19;20035;-69
2023/07/22 04:13:40;;;;;;;6.10;3.92;;;;;;;;;;7391549;19;20024;-69
2023/07/22 04:16:05;;;;;;;6.50;4.10;;;;;;;;;;7370780;19;20484;-68
2023/07/22 04:18:34;;;;;;;10.00;4.05;;;;;;;;;;7374447;19;20095;-69
2023/07/22 04:21:00;;;;;;;7.72;4.57;;;;;;;;;;7376139;19;20432;-69
2023/07/22 04:23:26;;;;;;;9.38;4.15;;;;;;;;;;7374893;19;20030;-69
2023/07/22 04:25:51;;;;;;;8.65;4.50;;;;;;;;;;7390974;19;20078;-69
2023/07/22 04:28:17;;;;;;;7.10;4.43;;;;;;;;;;7367595;19;20011;-69
2023/07/22 04:30:42;;;;;;;7.80;4.40;;;;;;;;;;7367686;19;20006;-69
2023/07/22 04:33:10;;;;;;;10.02;4.00;;;;;;;;;;7370137;19;20093;-69
2023/07/22 04:35:38;;;;;;;7.38;4.03;;;;;;;;;;7367135;19;20006;-69
2023/07/22 04:38:04;;;;;;;12.07;4.50;;;;;;;;;;7368017;19;20353;-69
2023/07/22 04:40:30;;;;;;;7.25;4.10;;;;;;;;;;7388294;19;20007;-69
2023/07/22 04:42:56;;;;;;;8.25;4.30;;;;;;;;;;7369362;19;20010;-70
2023/07/22 04:45:23;;;;;;;9.65;4.25;;;;;;;;;;7371696;19;20014;-69
2023/07/22 04:47:50;;;;;;;8.07;4.20;;;;;;;;;;7376241;19;20051;-69
2023/07/22 04:50:16;;;;;;;6.68;4.07;;;;;;;;;;7377591;19;20026;-69
2023/07/22 04:52:46;;;;;;;7.47;4.35;;;;;;;;;;7398838;19;20454;-69
2023/07/22 04:55:12;;;;;;;7.53;4.50;;;;;;;;;;7373818;19;20013;-69
2023/07/22 04:57:40;;;;;;;5.85;4.00;;;;;;;;;;7370453;19;20488;-69
2023/07/22 05:00:09;;;;;;;7.93;4.10;;;;;;;;;;7368827;19;20082;-70
2023/07/22 05:02:34;;;;;;;9.35;4.07;;;;;;;;;;7367931;19;20013;-69
2023/07/22 05:04:59;;;;;;;8.27;3.97;;;;;;;;;;7367417;19;20014;-69
2023/07/22 05:07:25;;;;;;;10.65;4.13;;;;;;;;;;7389033;19;20035;-69
2023/07/22 05:09:51;;;;;;;8.52;3.97;;;;;;;;;;7367833;19;20439;-69
2023/07/22 05:12:17;;;;;;;7.93;3.97;;;;;;;;;;7367661;19;20518;-69
2023/07/22 05:14:42;;;;;;;7.03;4.05;;;;;;;;;;7368409;19;20007;-69
2023/07/22 05:17:07;;;;;;;8.50;4.00;;;;;;;;;;7366044;19;20025;-69
2023/07/22 05:19:33;;;;;;;8.30;4.13;;;;;;;;;;7389434;19;20002;-69
2023/07/22 05:21:58;;;;;;;9.45;3.83;;;;;;;;;;7368280;19;20015;-69
2023/07/22 05:24:23;;;;;;;6.43;3.30;;;;;;;;;;7367559;19;20057;-69
2023/07/22 05:26:48;;;;;;;7.35;4.03;;;;;;;;;;7365728;19;20010;-69
2023/07/22 05:29:14;;;;;;;8.57;4.10;;;;;;;;;;7367799;19;20004;-70
2023/07/22 05:31:40;;;;;;;8.10;4.30;;;;;;;;;;7388592;19;20014;-70
2023/07/22 05:34:05;;;;;;;7.32;4.03;;;;;;;;;;7367368;19;20014;-70
2023/07/22 05:36:30;;;;;;;7.15;4.10;;;;;;;;;;7364773;19;20098;-70
2023/07/22 05:38:57;;;;;;;8.50;3.80;;;;;;;;;;7367969;19;20015;-70
2023/07/22 05:41:22;;;;;;;6.60;4.15;;;;;;;;;;7372662;19;20007;-69
2023/07/22 05:43:48;;;;;;;7.68;4.35;;;;;;;;;;7395336;19;20003;-69
2023/07/22 05:46:13;;;;;;;7.80;4.35;;;;;;;;;;7367581;19;20019;-69
2023/07/22 05:48:39;;;;;;;8.68;4.15;;;;;;;;;;7368868;19;20484;-69
2023/07/22 05:51:04;;;;;;;8.15;4.40;;;;;;;;;;7369409;19;20010;-69
2023/07/22 05:53:32;;;;;;;9.23;4.32;;;;;;;;;;7367643;19;20391;-69
2023/07/22 05:55:57;;;;;;;8.57;4.43;;;;;;;;;;7366212;19;20014;-69
2023/07/22 05:58:23;;;;;;;6.95;4.38;;;;;;;;;;7386258;19;20017;-69
2023/07/22 06:00:48;;;;;;;7.68;4.15;;;;;;;;;;7361943;19;20011;-69
2023/07/22 06:03:14;;;;;;;7.38;4.38;;;;;;;;;;7363476;19;20010;-70
2023/07/22 06:05:39;;;;;;;13.15;4.65;;;;;;;;;;7365707;19;20021;-69
2023/07/22 06:08:05;;;;;;;9.20;4.38;;;;;;;;;;7364851;19;20572;-69
2023/07/22 06:10:31;;;;;;;8.63;4.45;;;;;;;;;;7386533;19;20025;-69
2023/07/22 06:12:56;;;;;;;7.68;4.38;;;;;;;;;;7367296;19;20006;-69
2023/07/22 06:15:22;;;;;;;7.68;4.10;;;;;;;;;;7366561;19;20124;-69
2023/07/22 06:17:47;;;;;;;9.60;4.55;;;;;;;;;;7364543;19;20017;-69
2023/07/22 06:20:12;;;;;;;8.75;4.93;;;;;;;;;;7366902;19;20018;-69
2023/07/22 06:22:38;;;;;;;5.82;3.85;;;;;;;;;;7388906;19;19999;-70
2023/07/22 06:25:04;;;;;;;7.35;4.50;;;;;;;;;;7367286;19;20002;-70
2023/07/22 06:27:30;;;;;;;12.40;4.95;;;;;;;;;;7361672;19;20509;-69
2023/07/22 06:29:56;;;;;;;10.80;4.43;;;;;;;;;;7367569;19;20038;-70
2023/07/22 06:32:21;;;;;;;7.53;4.13;;;;;;;;;;7363791;19;20018;-70
2023/07/22 06:34:47;;;;;;;6.63;4.07;;;;;;;;;;7387513;19;20017;-69
2023/07/22 06:37:12;;;;;;;8.35;4.70;;;;;;;;;;7362551;19;20021;-69
2023/07/22 06:39:37;;;;;;;11.43;4.38;;;;;;;;;;7366842;19;20020;-70
2023/07/22 06:42:04;;;;;;;9.82;4.13;;;;;;;;;;7366051;19;20021;-70
2023/07/22 06:44:29;;;;;;;8.25;4.38;;;;;;;;;;7363481;19;20094;-69
2023/07/22 06:46:55;;;;;;;8.02;4.90;;;;;;;;;;7367081;19;20010;-69
2023/07/22 06:49:20;;;;;;;12.10;4.60;;;;;;;;;;7388597;19;20023;-70
2023/07/22 06:51:45;;;;;;;8.80;4.65;;;;;;;;;;7364234;19;20006;-70
2023/07/22 06:54:11;;;;;;;7.85;4.50;;;;;;;;;;7364104;19;20041;-70
2023/07/22 06:56:36;;;;;;;12.40;4.93;;;;;;;;;;7364449;19;20031;-69
2023/07/22 06:59:01;;;;;;;8.30;4.70;;;;;;;;;;7364944;19;20525;-69
2023/07/22 07:01:27;;;;;;;10.43;4.47;;;;;;;;;;7390587;19;20225;-69
2023/07/22 07:03:52;;;;;;;8.45;5.10;;;;;;;;;;7367966;19;20013;-70
2023/07/22 07:06:17;;;;;;;8.90;4.57;;;;;;;;;;7363191;19;20560;-69
2023/07/22 07:08:43;;;;;;;8.25;4.43;;;;;;;;;;7364545;19;20010;-69
2023/07/22 07:11:08;;;;;;;7.53;4.45;;;;;;;;;;7366029;19;20017;-69
2023/07/22 07:13:33;;;;;;;9.23;4.35;;;;;;;;;;7389837;19;20002;-69
2023/07/22 07:16:19;;;;;;;9.98;4.57;;;;;;;;;;7366210;19;20018;-69
2023/07/22 07:18:44;;;;;;;8.60;4.50;;;;;;;;;;7364151;19;20002;-69
2023/07/22 07:21:10;;;;;;;11.60;4.50;;;;;;;;;;7362925;19;20013;-71
2023/07/22 07:23:36;;;;;;;7.25;4.05;;;;;;;;;;7352197;19;20010;-70
2023/07/22 07:26:01;;;;;;;9.10;5.07;;;;;;;;;;7361163;19;20077;-70
2023/07/22 07:28:27;;;;;;;7.70;4.50;;;;;;;;;;7380613;19;20014;-70
2023/07/22 07:30:52;;;;;;;7.22;4.10;;;;;;;;;;7358789;19;20010;-71
2023/07/22 07:33:17;;;;;;;9.63;4.43;;;;;;;;;;7359575;19;20013;-70
2023/07/22 07:35:47;;;;;;;10.70;4.95;;;;;;;;;;7361147;19;20003;-70
2023/07/22 07:38:12;;;;;;;10.20;4.10;;;;;;;;;;7361041;19;20007;-71
2023/07/22 07:40:37;;;;;;;7.78;4.20;;;;;;;;;;7390864;19;20469;-71
2023/07/22 07:43:02;;;;;;;7.75;4.00;;;;;;;;;;7367374;19;20024;-71
2023/07/22 07:45:28;;;;;;;7.15;3.70;;;;;;;;;;7366289;19;20027;-70
2023/07/22 07:47:53;;;;;;;8.07;4.00;;;;;;;;;;7369795;19;20606;-69
2023/07/22 07:50:18;;;;;;;7.28;3.85;;;;;;;;;;7367772;19;20022;-70
2023/07/22 07:52:44;;;;;;;6.85;4.28;;;;;;;;;;7392222;19;20144;-70
2023/07/22 07:55:09;;;;;;;8.07;4.25;;;;;;;;;;7366344;19;20014;-70
2023/07/22 07:57:34;;;;;;;9.38;3.75;;;;;;;;;;7367513;19;20027;-74
2023/07/22 08:00:00;;;;;;;7.00;3.92;;;;;;;;;;7371408;19;20034;-76
2023/07/22 08:02:26;;;;;;;6.93;3.75;;;;;;;;;;7362066;19;20003;-75
2023/07/22 08:04:51;;;;;;;7.82;3.78;;;;;;;;;;7389377;19;20034;-75
2023/07/22 08:07:17;;;;;;;6.55;4.03;;;;;;;;;;7366454;19;20517;-74
2023/07/22 08:09:42;;;;;;;7.93;3.75;;;;;;;;;;7370379;19;20010;-74
2023/07/22 08:12:08;;;;;;;8.63;4.05;;;;;;;;;;7369985;19;20014;-74
2023/07/22 08:14:33;;;;;;;7.47;4.00;;;;;;;;;;7373537;19;20010;-73
2023/07/22 08:16:59;;;;;;;6.85;4.05;;;;;;;;;;7369824;19;20441;-75
2023/07/22 08:19:24;;;;;;;6.72;4.00;;;;;;;;;;7395074;19;20003;-74
2023/07/22 08:21:49;;;;;;;6.00;3.78;;;;;;;;;;7373335;19;20015;-75
2023/07/22 08:24:15;;;;;;;7.78;3.83;;;;;;;;;;7375729;19;20074;-74
2023/07/22 08:26:40;;;;;;;8.15;3.97;;;;;;;;;;7375406;19;20006;-78
2023/07/22 08:29:05;;;;;;;5.78;3.45;;;;;;;;;;7381855;19;20018;-77
2023/07/22 08:31:31;;;;;;;6.72;3.72;;;;;;;;;;7399389;19;20501;-75
2023/07/22 08:33:56;;;;;;;7.10;3.53;;;;;;;;;;7370647;19;20011;-74
2023/07/22 08:36:22;;;;;;;6.15;3.35;;;;;;;;;;7367514;19;20006;-75
2023/07/22 08:38:47;;;;;;;6.20;3.20;;;;;;;;;;7369407;19;20069;-72
2023/07/22 08:41:16;;;;;;;5.10;3.25;;;;;;;;;;7371444;19;20007;-75
2023/07/22 08:43:41;;;;;;;6.82;3.20;;;;;;;;;;7392790;19;20593;-75
2023/07/22 08:46:07;;;;;;;7.43;3.28;;;;;;;;;;7370950;19;20006;-75
2023/07/22 08:48:36;;;;;;;5.55;3.22;;;;;;;;;;7369370;19;20085;-74
2023/07/22 08:51:14;;;;;;;5.40;3.47;;;;;;;;;;7366291;19;20869;-74
2023/07/22 08:53:40;;;;;;;5.18;3.10;;;;;;;;;;7369712;19;20006;-74
2023/07/22 08:56:05;;;;;;;7.07;3.10;;;;;;;;;;7368355;19;19995;-74
2023/07/22 08:58:32;;;;;;;5.40;3.15;;;;;;;;;;7390139;19;20006;-74
2023/07/22 09:00:58;;;;;;;6.07;2.97;;;;;;;;;;7367871;19;20003;-74
2023/07/22 09:03:24;;;;;;;4.43;2.70;;;;;;;;;;7368734;19;20387;-75
2023/07/22 09:05:50;;;;;;;5.40;3.03;;;;;;;;;;7368674;19;20003;-72
2023/07/22 09:08:17;;;;;;;6.65;2.95;;;;;;;;;;7368813;19;20074;-73
2023/07/22 09:10:43;;;;;;;6.88;3.00;;;;;;;;;;7390480;19;20007;-73
2023/07/22 09:13:09;;;;;;;6.82;3.20;;;;;;;;;;7369819;19;20419;-73
2023/07/22 09:15:36;;;;;;;6.40;2.90;;;;;;;;;;7368450;19;20006;-73
2023/07/22 09:18:03;;;;;;;6.03;2.67;;;;;;;;;;7368920;19;20007;-73
2023/07/22 09:20:29;;;;;;;5.47;3.20;;;;;;;;;;7367973;19;20664;-74
2023/07/22 09:22:54;;;;;;;6.00;3.00;;;;;;;;;;7380258;19;20005;-73
2023/07/22 09:25:24;;;;;;;6.78;3.05;;;;;;;;;;7384145;19;20005;-72
2023/07/22 09:27:51;;;;;;;;;;;;;;;;;;7365516;19;20014;-72
2023/07/22 09:30:23;;;;;;;12.55;3.25;;;;;;;;;;7364770;19;20308;-74
2023/07/22 09:32:50;;;;;;;6.05;2.90;;;;;;;;;;7365731;19;20019;-73
2023/07/22 09:35:15;;;;;;;10.98;3.13;;;;;;;;;;7366828;19;20473;-74
2023/07/22 09:37:41;;;;;;;9.07;2.90;;;;;;;;;;7387078;19;20016;-74
2023/07/22 09:40:26;;;;;;;4.25;2.70;;;;;;;;;;7366886;19;20014;-74
2023/07/22 09:42:56;;;;;;;8.93;3.10;;;;;;;;;;7374066;19;20010;-74
2023/07/22 09:45:23;;;;;;;5.60;2.90;;;;;;;;;;7373081;19;20015;-74
2023/07/22 09:47:50;;;;;;;5.80;2.63;;;;;;;;;;7368475;19;20014;-73
2023/07/22 09:50:19;;;;;;;6.57;2.80;;;;;;;;;;7367314;19;20022;-72
2023/07/22 09:52:47;;;;;;;4.55;2.92;;;;;;;;;;7389727;19;20005;-73
2023/07/22 09:55:15;;;;;;;6.63;3.15;;;;;;;;;;7368619;19;20339;-73
2023/07/22 09:57:45;;;;;;;7.13;3.10;;;;;;;;;;7365910;19;20002;-76
2023/07/22 10:00:14;;;;;;;5.00;2.75;;;;;;;;;;7366195;19;20093;-73
2023/07/22 10:02:42;;;;;;;9.65;2.95;;;;;;;;;;7368835;19;20035;-72
2023/07/22 10:05:11;;;;;;;4.38;2.63;;;;;;;;;;7368006;19;20015;-72
2023/07/22 10:07:39;;;;;;;8.80;3.30;;;;;;;;;;7387029;19;20015;-73
2023/07/22 10:10:05;;;;;;;5.32;3.13;;;;;;;;;;7366530;19;20018;-72
2023/07/22 10:12:31;;;;;;;4.47;2.63;;;;;;;;;;7367195;19;20058;-72
2023/07/22 10:14:57;;;;;;;10.00;3.28;;;;;;;;;;7368422;19;20026;-72
2023/07/22 10:17:23;;;;;;;6.88;2.92;;;;;;;;;;7368596;19;20048;-77
2023/07/22 10:19:50;;;;;;;6.95;2.92;;;;;;;;;;7397228;19;19998;-78
2023/07/22 10:22:16;;;;;;;5.63;3.20;;;;;;;;;;7376127;19;20024;-77
2023/07/22 10:24:43;;;;;;;7.68;2.92;;;;;;;;;;7370666;19;20010;-76
2023/07/22 10:27:08;;;;;;;4.32;2.78;;;;;;;;;;7373049;19;20025;-75
2023/07/22 10:29:34;;;;;;;4.82;2.90;;;;;;;;;;7371926;19;20010;-74
2023/07/22 10:31:59;;;;;;;5.25;2.88;;;;;;;;;;7365509;19;20014;-74
2023/07/22 10:34:24;;;;;;;6.10;2.85;;;;;;;;;;7385859;19;20003;-74
2023/07/22 10:36:50;;;;;;;8.82;2.90;;;;;;;;;;7362717;19;20013;-74
2023/07/22 10:39:28;;;;;;;5.82;3.13;;;;;;;;;;7363774;19;20017;-75
2023/07/22 10:42:04;;;;;;;4.93;2.70;;;;;;;;;;7362547;19;20086;-75
2023/07/22 10:44:38;;;;;;;11.90;3.10;;;;;;;;;;7366168;19;20015;-75
2023/07/22 10:47:04;;;;;;;4.93;2.70;;;;;;;;;;7365234;19;20006;-74
2023/07/22 10:49:47;;;;;;;5.53;3.22;;;;;;;;;;7387767;19;20349;-74
2023/07/22 10:52:14;;;;;;;5.68;3.08;;;;;;;;;;7366493;19;20015;-74
2023/07/22 10:54:39;;;;;;;5.28;3.00;;;;;;;;;;7367186;19;20086;-74
2023/07/22 10:57:25;;;;;;;6.05;3.03;;;;;;;;;;7366514;19;20489;-74
2023/07/22 10:59:51;;;;;;;5.45;2.85;;;;;;;;;;7367936;19;20018;-75
2023/07/22 11:02:27;;;;;;;6.03;2.80;;;;;;;;;;7379271;19;20039;-74
2023/07/22 11:04:52;;;;;;;5.75;2.97;;;;;;;;;;7400552;19;20041;-74
2023/07/22 11:07:42;;;;;;;4.93;2.92;;;;;;;;;;7381023;19;20014;-74
2023/07/22 11:10:17;;;;;;;6.05;3.17;;;;;;;;;;7374256;19;20015;-74
2023/07/22 11:12:44;;;;;;;9.80;2.90;;;;;;;;;;7369826;19;20020;-74
2023/07/22 11:15:10;;;;;;;5.32;2.75;;;;;;;;;;7374765;19;20010;-74
2023/07/22 11:17:35;;;;;;;5.13;2.78;;;;;;;;;;7371644;19;20005;-74
2023/07/22 11:20:01;;;;;;;5.30;3.20;;;;;;;;;;7372893;19;20010;-74
2023/07/22 11:22:29;;;;;;;5.18;2.85;;;;;;;;;;7395664;19;20006;-75
2023/07/22 11:24:55;;;;;;;10.57;3.28;;;;;;;;;;7373047;19;20104;-75
2023/07/22 11:27:22;;;;;;;6.22;3.05;;;;;;;;;;7373508;19;20100;-75
2023/07/22 11:29:48;;;;;;;6.20;3.17;;;;;;;;;;7374712;19;20006;-74
2023/07/22 11:32:22;;;;;;;6.18;3.00;;;;;;;;;;7376587;19;20011;-75
2023/07/22 11:34:47;;;;;;;6.75;3.05;;;;;;;;;;7399008;19;20003;-75
2023/07/22 11:37:14;;;;;;;6.80;3.00;;;;;;;;;;7375589;19;20371;-75
2023/07/22 11:39:41;;;;;;;3.95;2.70;;;;;;;;;;7376795;19;20034;-75
2023/07/22 11:42:07;;;;;;;5.82;2.90;;;;;;;;;;7375451;19;20108;-75
2023/07/22 11:44:33;;;;;;;5.68;3.13;;;;;;;;;;7376673;19;20018;-75
2023/07/22 11:47:11;;;;;;;7.55;2.92;;;;;;;;;;7375367;19;20526;-75
2023/07/22 11:49:38;;;;;;;5.35;2.90;;;;;;;;;;7396133;19;19994;-75
2023/07/22 11:52:04;;;;;;;7.95;3.00;;;;;;;;;;7374839;19;20017;-74
2023/07/22 11:54:32;;;;;;;10.88;3.30;;;;;;;;;;7377124;19;20031;-74
2023/07/22 11:56:57;;;;;;;5.22;2.90;;;;;;;;;;7371584;19;20528;-74
2023/07/22 11:59:38;;;;;;;6.80;3.17;;;;;;;;;;7373893;19;20010;-74
2023/07/22 12:02:05;;;;;;;;;;;;;;;;;;7376535;19;20053;-74
2023/07/22 12:04:32;;;;;;;6.80;3.03;;;;;;;;;;7397701;19;19942;-75
2023/07/22 12:06:57;;;;;;;5.30;2.88;;;;;;;;;;7374741;19;20017;-75
2023/07/22 12:09:23;;;;;;;9.75;2.85;;;;;;;;;;7374899;19;20010;-75
2023/07/22 12:11:55;;;;;;;4.93;2.90;;;;;;;;;;7375571;19;20010;-75
2023/07/22 12:14:21;;;;;;;7.18;3.00;;;;;;;;;;7373837;19;20010;-75
2023/07/22 12:16:46;;;;;;;5.22;3.13;;;;;;;;;;7397198;19;20002;-76
2023/07/22 12:19:11;;;;;;;7.32;3.08;;;;;;;;;;7377375;19;20007;-76
2023/07/22 12:21:37;;;;;;;6.05;3.15;;;;;;;;;;7374784;19;20041;-76
2023/07/22 12:24:04;;;;;;;5.90;2.67;;;;;;;;;;7374680;19;20022;-75
2023/07/22 12:26:29;;;;;;;5.50;2.90;;;;;;;;;;7372063;19;20014;-76
2023/07/22 12:28:55;;;;;;;4.90;2.45;;;;;;;;;;7376456;19;20038;-75
2023/07/22 12:31:20;;;;;;;5.65;2.72;;;;;;;;;;7400318;19;20007;-75
2023/07/22 12:33:46;;;;;;;5.63;2.80;;;;;;;;;;7380629;19;20472;-75
2023/07/22 12:36:11;;;;;;;6.63;3.22;;;;;;;;;;7371942;19;20010;-75
2023/07/22 12:38:37;;;;;;;5.00;2.85;;;;;;;;;;7368570;19;20018;-75
2023/07/22 12:41:02;;;;;;;6.60;3.17;;;;;;;;;;7369543;19;20022;-75
2023/07/22 12:43:29;;;;;;;6.32;3.20;;;;;;;;;;7391589;19;20477;-75
2023/07/22 12:45:54;;;;;;;6.03;2.85;;;;;;;;;;7370745;19;20015;-75
2023/07/22 12:48:20;;;;;;;5.22;2.90;;;;;;;;;;7368025;19;20018;-75
2023/07/22 12:50:47;;;;;;;5.50;2.92;;;;;;;;;;7369188;19;20474;-74
2023/07/22 12:53:13;;;;;;;6.85;3.20;;;;;;;;;;7369273;19;20011;-74
2023/07/22 12:55:38;;;;;;;7.53;2.80;;;;;;;;;;7390150;19;20018;-75
2023/07/22 12:58:03;;;;;;;5.63;2.80;;;;;;;;;;7366932;19;20022;-75
2023/07/22 13:00:29;;;;;;;5.70;2.87;;;;;;;;;;7368497;19;20039;-75
2023/07/22 13:02:56;;;;;;;6.05;2.83;;;;;;;;;;7370860;19;20247;-75
2023/07/22 13:05:22;;;;;;;13.75;4.55;;;;;;;;;;7371058;19;20022;-75
2023/07/22 13:07:47;;;;;;;6.65;2.80;;;;;;;;;;7398751;19;20425;-76
2023/07/22 13:10:16;;;;;;;8.05;2.90;;;;;;;;;;7376935;19;20009;-75
2023/07/22 13:12:41;;;;;;;7.75;3.17;;;;;;;;;;7376330;19;20014;-75
2023/07/22 13:15:07;;;;;;;7.13;3.13;;;;;;;;;;7370226;19;20740;-75
2023/07/22 13:17:32;;;;;;;6.18;2.72;;;;;;;;;;7367106;19;20010;-74
2023/07/22 13:19:58;;;;;;;5.55;3.10;;;;;;;;;;7368909;19;20491;-75
2023/07/22 13:22:23;;;;;;;6.45;2.88;;;;;;;;;;7389541;19;20017;-75
2023/07/22 13:24:48;;;;;;;5.95;3.00;;;;;;;;;;7369353;19;20561;-75
2023/07/22 13:27:14;;;;;;;5.03;2.65;;;;;;;;;;7368653;19;20018;-75
2023/07/22 13:29:39;;;;;;;5.70;3.00;;;;;;;;;;7369005;19;20057;-74
2023/07/22 13:32:05;;;;;;;7.38;2.95;;;;;;;;;;7368306;19;20780;-74
2023/07/22 13:34:31;;;;;;;5.97;2.67;;;;;;;;;;7390721;19;20006;-74
2023/07/22 13:36:56;;;;;;;5.50;2.90;;;;;;;;;;7365903;19;20018;-74
2023/07/22 13:39:22;;;;;;;6.15;3.03;;;;;;;;;;7370175;19;20085;-75
2023/07/22 13:41:47;;;;;;;6.95;2.80;;;;;;;;;;7369726;19;20061;-74
2023/07/22 13:44:13;;;;;;;7.55;2.78;;;;;;;;;;7370135;19;22435;-74
2023/07/22 13:46:38;;;;;;;5.32;2.63;;;;;;;;;;7390814;19;20010;-74
2023/07/22 13:49:03;;;;;;;4.32;2.50;;;;;;;;;;7369834;19;20066;-75
2023/07/22 13:51:28;;;;;;;5.82;2.78;;;;;;;;;;7366877;19;20003;-76
2023/07/22 13:53:54;;;;;;;4.60;2.80;;;;;;;;;;7371288;19;20010;-74
2023/07/22 13:56:20;;;;;;;5.50;2.90;;;;;;;;;;7373379;19;20736;-75
2023/07/22 13:58:45;;;;;;;6.30;2.90;;;;;;;;;;7407864;19;20002;-75
2023/07/22 14:01:11;;;;;;;5.65;3.05;;;;;;;;;;7376692;19;20014;-75
2023/07/22 14:03:36;;;;;;;6.40;2.60;;;;;;;;;;7367335;19;20035;-74
2023/07/22 14:06:02;;;;;;;4.72;2.75;;;;;;;;;;7369094;19;20093;-75
2023/07/22 14:08:28;;;;;;;5.22;2.90;;;;;;;;;;7371924;19;20078;-74
2023/07/22 14:10:54;;;;;;;5.13;2.70;;;;;;;;;;7393013;19;20487;-73
2023/07/22 14:13:19;;;;;;;8.85;2.72;;;;;;;;;;7368692;19;20074;-74
2023/07/22 14:15:44;;;;;;;6.00;2.70;;;;;;;;;;7362972;19;20993;-75
2023/07/22 14:18:10;;;;;;;7.22;3.00;;;;;;;;;;7368771;19;20018;-76
2023/07/22 14:20:35;;;;;;;4.43;2.50;;;;;;;;;;7365977;19;20010;-76
2023/07/22 14:23:01;;;;;;;5.00;2.90;;;;;;;;;;7362646;19;20473;-74
2023/07/22 14:25:26;;;;;;;7.80;2.70;;;;;;;;;;7385210;19;19999;-73
2023/07/22 14:27:51;;;;;;;5.28;2.70;;;;;;;;;;7360138;19;20420;-60
2023/07/22 14:30:17;;;;;;;4.97;2.53;;;;;;;;;;7361630;19;20042;-62
2023/07/22 14:32:42;;;;;;;6.53;2.85;;;;;;;;;;7361903;19;20014;-60
2023/07/22 14:35:08;;;;;;;4.85;2.60;;;;;;;;;;7363206;19;20615;-62
2023/07/22 14:37:33;;;;;;;4.18;2.80;;;;;;;;;;7382828;19;20011;-60
2023/07/22 14:39:59;;;;;;;4.72;2.58;;;;;;;;;;7362966;19;20548;-60